Main page
METAR-TAF:

METAR-TAF

Airports :

Zamboanga International Airport

Zamboanga, Philippines

latitude: 06-54N, longitude: 122-04E, elevation: 5 m

Current weather observation

The report was made 56 minutes ago, at 18:00 UTC
Wind 1 kt from variable directions
Temperature 25°C
Humidity 83%
Pressure 1010 hPa
Visibility 10 km or more
Few clouds at a height of 1700 ft

METAR: RPMZ 031800Z VRB01KT 9999 FEW017 25/22 Q1010 RMK A2983

Time: 02:56 (18:56 UTC)

Forecast

The report was made 1 hour and 56 minutes ago, at 17:00 UTC
Forecast valid from 03 at 18 UTC to 04 at 18 UTC
Wind 2 kt from variable directions
Visibility 10 km or more
Few clouds at a height of 1700 ft
Becoming
from 04 at 00 UTC to 04 at 02 UTC
Wind 8 kt from the East
Becoming
from 04 at 06 UTC to 04 at 08 UTC
Wind 6 kt from the West

TAF: RPMZ 031700Z 0318/0418 VRB02KT 9999 FEW017 BECMG 0400/0402 09008KT BECMG 0406/0408 26006KT

Weather observations and forecasts of more than 4000 airports (METAR and TAF reports).

The available stations are represented by yellow and red dots on the map.

Hover mouse over dot to see the name of the station.

Then click to see weather observations and forecasts.

To change the map : click on the green buttons with a black cross to zoom in, on the green button with a dash to zoom out, or on the green arrows for adjacent maps.


METAR-TAF: